createdAt,value
2022-09-07T00:01:42.183Z,6.45
2022-09-07T00:04:45.561Z,6.35
2022-09-07T00:07:50.574Z,5.40
2022-09-07T00:10:56.722Z,5.85
2022-09-07T00:14:00.107Z,5.25
2022-09-07T00:17:03.395Z,5.57
2022-09-07T00:20:09.162Z,6.05
2022-09-07T00:23:14.144Z,5.95
2022-09-07T00:26:19.985Z,6.05
2022-09-07T00:29:23.453Z,6.80
2022-09-07T00:32:27.205Z,6.40
2022-09-07T00:35:30.683Z,5.80
2022-09-07T00:38:35.802Z,6.18
2022-09-07T00:41:39.243Z,7.07
2022-09-07T00:45:09.048Z,6.50
2022-09-07T00:48:16.984Z,6.90
2022-09-07T00:54:33.699Z,7.57
2022-09-07T00:57:38.822Z,7.45
2022-09-07T01:00:44.544Z,6.80
2022-09-07T01:03:50.303Z,7.43
2022-09-07T01:06:56.247Z,7.38
2022-09-07T01:10:02.203Z,6.65
2022-09-07T01:13:05.650Z,7.63
2022-09-07T01:16:14.815Z,6.88
2022-09-07T01:19:43.527Z,7.40
2022-09-07T01:23:07.364Z,6.57
2022-09-07T01:26:44.849Z,7.35
2022-09-07T01:29:57.042Z,5.60
2022-09-07T01:33:26.989Z,6.47
2022-09-07T01:36:36.439Z,6.57
2022-09-07T01:39:48.537Z,6.70
2022-09-07T01:42:57.208Z,6.60
2022-09-07T01:46:06.572Z,7.03
2022-09-07T01:49:16.589Z,7.50
2022-09-07T01:52:25.032Z,8.15
2022-09-07T01:55:39.375Z,6.75
2022-09-07T01:58:48.926Z,6.07
2022-09-07T02:02:00.146Z,6.35
2022-09-07T02:05:08.350Z,7.35
2022-09-07T02:08:15.975Z,7.28
2022-09-07T02:11:22.808Z,6.65
2022-09-07T02:14:30.203Z,6.82
2022-09-07T02:17:38.105Z,6.75
2022-09-07T02:20:50.462Z,7.30
2022-09-07T02:24:03.917Z,6.78
2022-09-07T02:27:25.467Z,7.03
2022-09-07T02:30:29.164Z,7.72
2022-09-07T02:33:34.249Z,7.70
2022-09-07T02:36:42.756Z,7.50
2022-09-07T02:39:46.141Z,6.85
2022-09-07T02:42:50.188Z,7.82
2022-09-07T02:46:13.169Z,6.70
2022-09-07T02:49:31.036Z,6.50
2022-09-07T02:52:43.810Z,7.05
2022-09-07T02:56:01.385Z,7.07
2022-09-07T02:59:13.851Z,8.07
2022-09-07T03:02:25.442Z,8.82
2022-09-07T03:05:39.915Z,8.68
2022-09-07T03:08:49.110Z,8.80
2022-09-07T03:11:53.030Z,9.55
2022-09-07T03:14:56.565Z,9.27
2022-09-07T03:17:59.922Z,9.20
2022-09-07T03:21:04.849Z,8.73
2022-09-07T03:24:08.562Z,8.50
2022-09-07T03:27:11.873Z,8.73
2022-09-07T03:34:20.180Z,9.10
2022-09-07T03:37:23.487Z,8.07
2022-09-07T03:40:26.682Z,6.72
2022-09-07T03:43:30.335Z,7.32
2022-09-07T03:46:34.303Z,9.20
2022-09-07T03:49:39.099Z,7.88
2022-09-07T03:52:42.595Z,6.43
2022-09-07T03:55:56.134Z,9.52
2022-09-07T03:58:59.422Z,9.07
2022-09-07T04:02:03.708Z,8.30
2022-09-07T04:05:09.578Z,7.82
2022-09-07T04:08:13.142Z,8.57
2022-09-07T04:11:20.226Z,7.55
2022-09-07T04:14:23.495Z,7.50
2022-09-07T04:17:28.002Z,7.65
2022-09-07T04:20:32.635Z,7.90
2022-09-07T04:23:37.786Z,6.40
2022-09-07T04:26:43.245Z,7.88
2022-09-07T04:29:48.322Z,7.75
2022-09-07T04:32:51.609Z,7.75
2022-09-07T04:35:56.195Z,7.47
2022-09-07T04:39:01.378Z,7.35
2022-09-07T04:42:05.058Z,8.05
2022-09-07T04:45:09.386Z,8.25
2022-09-07T04:48:12.759Z,8.88
2022-09-07T04:51:18.154Z,7.82
2022-09-07T04:54:21.447Z,7.47
2022-09-07T04:57:26.549Z,8.55
2022-09-07T05:00:30.062Z,7.30
2022-09-07T05:03:35.528Z,7.05
2022-09-07T05:06:50.932Z,7.82
2022-09-07T05:09:54.246Z,6.78
2022-09-07T05:12:58.121Z,6.05
2022-09-07T05:16:08.013Z,7.50
2022-09-07T05:19:13.327Z,7.40
2022-09-07T05:22:17.993Z,7.93
2022-09-07T05:25:21.216Z,8.50
2022-09-07T05:28:24.641Z,8.98
2022-09-07T05:31:28.045Z,8.77
2022-09-07T05:34:31.754Z,8.95
2022-09-07T05:37:36.953Z,8.80
2022-09-07T05:40:41.043Z,8.65
2022-09-07T05:47:08.456Z,9.32
2022-09-07T05:50:11.794Z,8.80
2022-09-07T05:53:16.504Z,9.77
2022-09-07T05:56:19.893Z,8.90
2022-09-07T05:59:23.333Z,9.55
2022-09-07T06:02:26.796Z,9.27
2022-09-07T06:05:30.234Z,8.00
2022-09-07T06:08:36.355Z,8.85
2022-09-07T06:11:39.816Z,8.45
2022-09-07T06:14:43.258Z,7.32
2022-09-07T06:17:46.670Z,7.65
2022-09-07T06:20:50.156Z,8.13
2022-09-07T06:23:55.726Z,8.43
2022-09-07T06:26:59.066Z,7.60
2022-09-07T06:30:02.350Z,6.93
2022-09-07T06:33:05.960Z,6.70
2022-09-07T06:36:13.138Z,6.60
2022-09-07T06:39:17.955Z,6.90
2022-09-07T06:42:21.204Z,7.35
2022-09-07T06:45:29.018Z,6.88
2022-09-07T06:48:33.213Z,6.40
2022-09-07T06:51:36.862Z,7.18
2022-09-07T06:58:01.246Z,6.53
2022-09-07T07:01:07.380Z,5.90
2022-09-07T07:04:10.642Z,6.47
2022-09-07T07:07:14.807Z,6.20
2022-09-07T07:10:24.207Z,7.47
2022-09-07T07:13:28.300Z,6.45
2022-09-07T07:16:31.815Z,6.07
2022-09-07T07:19:35.161Z,5.65
2022-09-07T07:22:47.080Z,6.20
2022-09-07T07:25:51.938Z,6.70
2022-09-07T07:35:08.802Z,5.63
2022-09-07T07:48:19.227Z,5.60
2022-09-07T07:51:23.195Z,5.53
2022-09-07T07:54:26.550Z,5.35
2022-09-07T07:57:31.319Z,4.97
2022-09-07T08:00:52.996Z,5.00
2022-09-07T08:03:57.879Z,5.38
2022-09-07T08:07:04.444Z,5.22
2022-09-07T08:10:12.898Z,5.20
2022-09-07T08:13:19.068Z,5.57
2022-09-07T08:16:22.994Z,5.28
2022-09-07T08:19:26.237Z,5.00
2022-09-07T08:22:32.972Z,4.68
2022-09-07T08:25:37.936Z,4.93
2022-09-07T08:28:45.494Z,4.68
2022-09-07T08:31:48.774Z,4.63
2022-09-07T08:34:52.075Z,4.82
2022-09-07T08:37:55.346Z,3.97
2022-09-07T08:40:59.004Z,4.57
2022-09-07T08:44:06.919Z,5.05
2022-09-07T08:47:20.971Z,4.90
2022-09-07T08:50:29.333Z,6.30
2022-09-07T08:53:33.378Z,3.92
2022-09-07T08:56:39.538Z,3.97
2022-09-07T08:59:50.066Z,3.97
2022-09-07T09:06:24.444Z,3.25
2022-09-07T09:09:38.271Z,3.20
2022-09-07T09:12:56.124Z,3.00
2022-09-07T09:16:06.097Z,2.72
2022-09-07T09:19:28.867Z,3.15
2022-09-07T09:22:33.519Z,2.90
2022-09-07T09:25:40.210Z,4.00
2022-09-07T09:28:43.295Z,2.95
2022-09-07T09:34:25.475Z,2.35
2022-09-07T09:37:36.460Z,2.45
2022-09-07T09:40:39.640Z,2.40
2022-09-07T09:43:46.227Z,2.63
2022-09-07T09:53:56.928Z,2.92
2022-09-07T09:57:03.647Z,2.60
2022-09-07T10:00:12.097Z,2.50
2022-09-07T10:06:51.339Z,2.40
2022-09-07T10:09:55.967Z,2.33
2022-09-07T10:12:59.431Z,2.63
2022-09-07T10:16:06.304Z,2.30
2022-09-07T10:19:25.520Z,2.50
2022-09-07T10:22:36.840Z,2.13
2022-09-07T10:25:41.925Z,2.67
2022-09-07T10:32:26.883Z,2.42
2022-09-07T10:35:34.502Z,2.70
2022-09-07T10:38:44.898Z,2.15
2022-09-07T10:42:08.387Z,2.35
2022-09-07T10:45:19.142Z,2.35
2022-09-07T10:48:30.621Z,2.33
2022-09-07T10:51:41.697Z,2.45
2022-09-07T10:54:54.218Z,3.05
2022-09-07T10:58:11.582Z,2.63
2022-09-07T11:01:25.492Z,2.78
2022-09-07T11:04:46.805Z,2.65
2022-09-07T11:07:59.896Z,2.25
2022-09-07T11:11:10.366Z,3.55
2022-09-07T11:14:18.626Z,3.67
2022-09-07T11:17:25.899Z,2.10
2022-09-07T11:23:42.930Z,2.45
2022-09-07T11:26:53.426Z,2.75
2022-09-07T11:30:18.667Z,2.70
2022-09-07T11:33:26.421Z,2.65
2022-09-07T11:36:35.124Z,2.70
2022-09-07T11:39:45.870Z,2.75
2022-09-07T11:42:54.056Z,2.58
2022-09-07T11:46:02.475Z,2.65
2022-09-07T11:49:08.559Z,2.70
2022-09-07T11:52:28.951Z,2.28
2022-09-07T11:55:36.925Z,2.58
2022-09-07T11:58:56.422Z,2.47
2022-09-07T12:02:15.913Z,2.25
2022-09-07T12:05:29.530Z,2.47
2022-09-07T12:08:56.110Z,3.13
2022-09-07T12:12:23.167Z,2.15
2022-09-07T12:15:38.612Z,2.28
2022-09-07T12:19:04.908Z,2.50
2022-09-07T12:22:20.714Z,2.30
2022-09-07T12:25:27.002Z,1.88
2022-09-07T12:29:06.122Z,2.28
2022-09-07T12:35:40.948Z,2.28
2022-09-07T12:39:20.659Z,2.60
2022-09-07T12:42:32.505Z,2.10
2022-09-07T12:45:52.081Z,1.85
2022-09-07T12:49:09.323Z,1.83
2022-09-07T12:52:33.331Z,2.03
2022-09-07T12:59:40.681Z,2.17
2022-09-07T13:07:02.295Z,1.80
2022-09-07T13:10:24.549Z,1.90
2022-09-07T13:17:29.608Z,1.92
2022-09-07T13:20:39.692Z,2.42
2022-09-07T13:24:45.571Z,2.28
2022-09-07T13:27:53.951Z,2.10
2022-09-07T13:31:10.799Z,1.92
2022-09-07T13:34:50.069Z,2.00
2022-09-07T13:37:57.711Z,1.80
2022-09-07T13:41:07.226Z,2.00
2022-09-07T13:44:25.659Z,2.15
2022-09-07T13:47:42.440Z,2.17
2022-09-07T13:50:57.556Z,2.97
2022-09-07T13:54:08.454Z,2.00
2022-09-07T13:57:21.166Z,2.17
2022-09-07T14:00:24.593Z,2.42
2022-09-07T14:03:31.164Z,2.33
2022-09-07T14:06:35.877Z,2.05
2022-09-07T14:09:40.511Z,2.22
2022-09-07T14:12:46.075Z,2.13
2022-09-07T14:15:50.950Z,1.88
2022-09-07T14:18:54.939Z,1.70
2022-09-07T14:22:00.803Z,2.30
2022-09-07T14:25:09.163Z,2.00
2022-09-07T14:28:30.916Z,2.10
2022-09-07T14:31:34.853Z,1.90
2022-09-07T14:34:40.854Z,1.63
2022-09-07T14:37:46.153Z,2.00
2022-09-07T14:40:52.990Z,1.90
2022-09-07T14:43:58.312Z,1.80
2022-09-07T14:47:07.670Z,2.10
2022-09-07T14:50:21.110Z,2.00
2022-09-07T14:53:39.416Z,1.85
2022-09-07T14:56:46.985Z,2.20
2022-09-07T14:59:50.319Z,1.83
2022-09-07T15:02:53.457Z,1.88
2022-09-07T15:06:00.775Z,2.08
2022-09-07T15:09:07.081Z,1.80
2022-09-07T15:12:24.879Z,1.67
2022-09-07T15:15:39.491Z,1.83
2022-09-07T15:18:54.523Z,1.80
2022-09-07T15:21:57.842Z,1.50
2022-09-07T15:25:00.945Z,1.50
2022-09-07T15:28:06.684Z,1.58
2022-09-07T15:34:24.613Z,1.65
2022-09-07T15:41:20.821Z,1.60
2022-09-07T15:44:24.989Z,2.05
2022-09-07T15:47:50.682Z,1.55
2022-09-07T15:51:02.663Z,1.77
2022-09-07T15:54:11.637Z,1.55
2022-09-07T16:00:38.463Z,1.73
2022-09-07T16:03:41.852Z,1.70
2022-09-07T16:06:48.111Z,1.52
2022-09-07T16:09:52.511Z,2.22
2022-09-07T16:13:09.960Z,1.67
2022-09-07T16:16:15.692Z,1.73
2022-09-07T16:19:22.222Z,1.90
2022-09-07T16:25:57.988Z,1.50
2022-09-07T16:29:01.671Z,1.55
2022-09-07T16:35:28.143Z,1.58
2022-09-07T16:38:48.342Z,1.80
2022-09-07T16:41:52.473Z,1.73
2022-09-07T16:46:02.616Z,1.75
2022-09-07T16:48:18.765Z,1.67
2022-09-07T16:51:23.149Z,1.77
2022-09-07T16:54:27.711Z,1.60
2022-09-07T16:58:35.326Z,1.60
2022-09-07T17:00:54.549Z,2.20
2022-09-07T17:03:58.142Z,1.90
2022-09-07T17:07:02.278Z,2.00
2022-09-07T17:10:07.457Z,1.90
2022-09-07T17:13:10.856Z,1.75
2022-09-07T17:16:16.106Z,1.75
2022-09-07T17:19:36.212Z,2.20
2022-09-07T17:22:39.350Z,2.05
2022-09-07T17:25:43.697Z,1.77
2022-09-07T17:28:52.789Z,1.65
2022-09-07T17:35:23.282Z,1.90
2022-09-07T17:41:52.687Z,1.60
2022-09-07T17:44:56.003Z,1.60
2022-09-07T17:47:59.260Z,2.10
2022-09-07T17:51:03.202Z,1.60
2022-09-07T17:54:24.915Z,1.33
2022-09-07T17:57:34.834Z,1.50
2022-09-07T18:00:38.299Z,2.55
2022-09-07T18:03:42.018Z,2.05
2022-09-07T18:06:45.530Z,2.13
2022-09-07T18:09:48.649Z,2.08
2022-09-07T18:12:55.022Z,2.10
2022-09-07T18:15:58.270Z,2.10
2022-09-07T18:19:04.923Z,2.15
2022-09-07T18:22:08.736Z,2.28
2022-09-07T18:25:11.848Z,2.42
2022-09-07T18:31:39.947Z,2.30
2022-09-07T18:34:46.955Z,2.80
2022-09-07T18:37:53.441Z,2.17
2022-09-07T18:41:05.250Z,2.60
2022-09-07T18:47:32.847Z,2.25
2022-09-07T18:50:35.959Z,2.60
2022-09-07T18:53:39.549Z,2.58
2022-09-07T18:56:42.928Z,2.00
2022-09-07T18:59:47.398Z,2.22
2022-09-07T19:02:51.544Z,2.17
2022-09-07T19:05:58.919Z,2.15
2022-09-07T19:09:04.451Z,2.22
2022-09-07T19:12:09.994Z,2.40
2022-09-07T19:15:15.625Z,2.38
2022-09-07T19:18:18.893Z,2.22
2022-09-07T19:21:24.899Z,2.40
2022-09-07T19:24:28.875Z,2.38
2022-09-07T19:27:32.999Z,2.20
2022-09-07T19:30:37.686Z,2.20
2022-09-07T19:33:40.808Z,3.05
2022-09-07T19:36:43.895Z,2.22
2022-09-07T19:39:49.131Z,2.50
2022-09-07T19:42:52.288Z,2.40
2022-09-07T19:45:57.031Z,2.08
2022-09-07T19:49:00.030Z,2.28
2022-09-07T19:52:03.465Z,2.40
2022-09-07T19:55:07.625Z,2.30
2022-09-07T19:58:11.792Z,2.80
2022-09-07T20:01:18.654Z,2.92
2022-09-07T20:04:23.509Z,2.80
2022-09-07T20:07:26.893Z,2.42
2022-09-07T20:10:31.812Z,2.95
2022-09-07T20:13:36.725Z,2.03
2022-09-07T20:16:41.768Z,2.08
2022-09-07T20:19:45.103Z,2.78
2022-09-07T20:22:48.628Z,2.78
2022-09-07T20:25:58.567Z,2.50
2022-09-07T20:29:25.705Z,2.60
2022-09-07T20:32:28.148Z,2.78
2022-09-07T20:35:32.546Z,2.55
2022-09-07T20:38:40.315Z,3.05
2022-09-07T20:41:43.703Z,2.70
2022-09-07T20:44:46.930Z,2.90
2022-09-07T20:47:51.363Z,2.60
2022-09-07T20:50:58.134Z,3.25
2022-09-07T20:54:01.162Z,3.00
2022-09-07T20:57:04.324Z,2.70
2022-09-07T21:00:08.580Z,2.63
2022-09-07T21:03:14.645Z,2.72
2022-09-07T21:06:19.008Z,2.60
2022-09-07T21:09:22.139Z,2.63
2022-09-07T21:12:25.366Z,2.85
2022-09-07T21:15:29.242Z,2.97
2022-09-07T21:18:34.849Z,2.80
2022-09-07T21:21:40.648Z,3.10
2022-09-07T21:24:44.096Z,3.00
2022-09-07T21:27:47.165Z,3.22
2022-09-07T21:34:19.192Z,3.53
2022-09-07T21:37:22.328Z,3.13
2022-09-07T21:40:26.096Z,3.28
2022-09-07T21:43:29.245Z,3.90
2022-09-07T21:46:34.179Z,3.33
2022-09-07T21:49:38.765Z,3.08
2022-09-07T21:52:42.039Z,3.33
2022-09-07T21:55:45.394Z,3.97
2022-09-07T21:58:48.859Z,3.80
2022-09-07T22:01:52.053Z,3.78
2022-09-07T22:04:56.513Z,4.07
2022-09-07T22:07:59.672Z,4.05
2022-09-07T22:11:08.231Z,4.10
2022-09-07T22:14:12.844Z,3.67
2022-09-07T22:17:16.031Z,3.70
2022-09-07T22:20:22.904Z,3.30
2022-09-07T22:23:26.047Z,3.40
2022-09-07T22:26:31.431Z,3.30
2022-09-07T22:29:34.642Z,3.30
2022-09-07T22:32:37.721Z,3.60
2022-09-07T22:35:42.373Z,4.10
2022-09-07T22:38:50.442Z,3.55
2022-09-07T22:41:53.676Z,3.28
2022-09-07T22:44:57.071Z,3.85
2022-09-07T22:48:00.224Z,3.70
2022-09-07T22:51:05.770Z,3.78
2022-09-07T22:54:09.063Z,3.25
2022-09-07T22:57:12.254Z,4.00
2022-09-07T23:00:16.062Z,3.10
2022-09-07T23:03:19.761Z,3.78
2022-09-07T23:06:27.127Z,3.10
2022-09-07T23:09:30.526Z,3.40
2022-09-07T23:12:33.645Z,4.13
2022-09-07T23:15:37.303Z,3.55
2022-09-07T23:18:41.599Z,3.80
2022-09-07T23:21:46.296Z,3.35
2022-09-07T23:24:49.542Z,3.33
2022-09-07T23:27:56.152Z,3.10
2022-09-07T23:30:59.795Z,3.67
2022-09-07T23:34:03.888Z,3.03
2022-09-07T23:37:08.683Z,3.45
2022-09-07T23:40:12.388Z,3.28
2022-09-07T23:43:15.611Z,3.60
2022-09-07T23:46:19.184Z,3.60
2022-09-07T23:49:22.423Z,3.95
2022-09-07T23:52:26.917Z,4.05
2022-09-07T23:55:30.136Z,4.40
2022-09-07T23:58:33.572Z,4.72
